Terminal Aerodrome Forecast
Issued by NWS

Home | Current Version | Previous Version | Text Only | Print | Product List | Glossary On
Versions: 1 2 3 4 5 6 7 8 9 10 11 12 13 14 15 16
000
FTAK31 PAFA 182320
TAFAGA
TAF
PAGA 182320Z 1900/1924 26007KT P6SM VCSH SCT040
     FM190600 27004KT P6SM VCSH BKN050 OVC080
     FM191900 24004KT P6SM -SHRA OVC025=

USA.gov is the U.S. government's official web portal to all federal, state and local government web resources and services.